sensor_id;sensor_type;location;lat;lon;timestamp;temperature;humidity
37050;DHT22;22958;51.232;6.826;2022-10-04T00:01:49;10.50;99.90
37050;DHT22;22958;51.232;6.826;2022-10-04T00:04:16;10.60;99.90
37050;DHT22;22958;51.232;6.826;2022-10-04T00:06:52;10.70;99.90
37050;DHT22;22958;51.232;6.826;2022-10-04T00:09:21;10.70;99.90
37050;DHT22;22958;51.232;6.826;2022-10-04T00:11:48;10.80;99.90
37050;DHT22;22958;51.232;6.826;2022-10-04T00:16:42;10.80;99.90
37050;DHT22;22958;51.232;6.826;2022-10-04T00:24:19;10.90;99.90
37050;DHT22;22958;51.232;6.826;2022-10-04T00:29:28;10.90;99.90
37050;DHT22;22958;51.232;6.826;2022-10-04T00:32:22;10.90;99.90
37050;DHT22;22958;51.232;6.826;2022-10-04T00:34:44;10.80;99.90
37050;DHT22;22958;51.232;6.826;2022-10-04T00:37:14;10.70;99.90
37050;DHT22;22958;51.232;6.826;2022-10-04T00:39:41;10.70;99.90
37050;DHT22;22958;51.232;6.826;2022-10-04T00:47:23;10.70;99.90
37050;DHT22;22958;51.232;6.826;2022-10-04T00:49:51;10.70;99.90
37050;DHT22;22958;51.232;6.826;2022-10-04T00:52:29;10.70;99.90
37050;DHT22;22958;51.232;6.826;2022-10-04T00:54:57;10.70;99.90
37050;DHT22;22958;51.232;6.826;2022-10-04T00:57:26;10.70;99.90
37050;DHT22;22958;51.232;6.826;2022-10-04T00:59:52;10.80;99.90
37050;DHT22;22958;51.232;6.826;2022-10-04T01:02:21;10.80;99.90
37050;DHT22;22958;51.232;6.826;2022-10-04T01:04:51;10.70;99.90
37050;DHT22;22958;51.232;6.826;2022-10-04T01:07:22;10.70;99.90
37050;DHT22;22958;51.232;6.826;2022-10-04T01:09:52;10.60;99.90
37050;DHT22;22958;51.232;6.826;2022-10-04T01:12:25;10.60;99.90
37050;DHT22;22958;51.232;6.826;2022-10-04T01:15:06;10.60;99.90
37050;DHT22;22958;51.232;6.826;2022-10-04T01:17:33;10.60;99.90
37050;DHT22;22958;51.232;6.826;2022-10-04T01:19:59;10.70;99.90
37050;DHT22;22958;51.232;6.826;2022-10-04T01:25:02;10.70;99.90
37050;DHT22;22958;51.232;6.826;2022-10-04T01:27:29;10.80;99.90
37050;DHT22;22958;51.232;6.826;2022-10-04T01:29:55;10.80;99.90
37050;DHT22;22958;51.232;6.826;2022-10-04T01:32:21;10.80;99.90
37050;DHT22;22958;51.232;6.826;2022-10-04T01:34:47;10.80;99.90
37050;DHT22;22958;51.232;6.826;2022-10-04T01:37:12;10.70;99.90
37050;DHT22;22958;51.232;6.826;2022-10-04T01:39:38;10.70;99.90
37050;DHT22;22958;51.232;6.826;2022-10-04T01:47:08;10.50;99.90
37050;DHT22;22958;51.232;6.826;2022-10-04T01:49:35;10.50;99.90
37050;DHT22;22958;51.232;6.826;2022-10-04T01:52:07;10.50;99.90
37050;DHT22;22958;51.232;6.826;2022-10-04T01:54:38;10.40;99.90
37050;DHT22;22958;51.232;6.826;2022-10-04T01:57:06;10.50;99.90
37050;DHT22;22958;51.232;6.826;2022-10-04T01:59:40;10.50;99.90
37050;DHT22;22958;51.232;6.826;2022-10-04T02:02:20;10.40;99.90
37050;DHT22;22958;51.232;6.826;2022-10-04T02:04:52;10.40;99.90
37050;DHT22;22958;51.232;6.826;2022-10-04T02:07:19;10.30;99.90
37050;DHT22;22958;51.232;6.826;2022-10-04T02:09:45;10.30;99.90
37050;DHT22;22958;51.232;6.826;2022-10-04T02:12:15;10.30;99.90
37050;DHT22;22958;51.232;6.826;2022-10-04T02:14:42;10.30;99.90
37050;DHT22;22958;51.232;6.826;2022-10-04T02:17:10;10.30;99.90
37050;DHT22;22958;51.232;6.826;2022-10-04T02:19:39;10.30;99.90
37050;DHT22;22958;51.232;6.826;2022-10-04T02:22:06;10.20;99.90
37050;DHT22;22958;51.232;6.826;2022-10-04T02:24:32;10.10;99.90
37050;DHT22;22958;51.232;6.826;2022-10-04T02:26:58;10.10;99.90
37050;DHT22;22958;51.232;6.826;2022-10-04T02:29:24;10.10;99.90
37050;DHT22;22958;51.232;6.826;2022-10-04T02:31:50;10.10;99.90
37050;DHT22;22958;51.232;6.826;2022-10-04T02:34:34;10.10;99.90
37050;DHT22;22958;51.232;6.826;2022-10-04T02:37:01;10.10;99.90
37050;DHT22;22958;51.232;6.826;2022-10-04T02:39:31;10.10;99.90
37050;DHT22;22958;51.232;6.826;2022-10-04T02:42:00;10.10;99.90
37050;DHT22;22958;51.232;6.826;2022-10-04T02:44:28;10.10;99.90
37050;DHT22;22958;51.232;6.826;2022-10-04T02:47:17;10.00;99.90
37050;DHT22;22958;51.232;6.826;2022-10-04T02:49:48;10.00;99.90
37050;DHT22;22958;51.232;6.826;2022-10-04T02:52:28;10.10;99.90
37050;DHT22;22958;51.232;6.826;2022-10-04T02:55:05;10.10;99.90
37050;DHT22;22958;51.232;6.826;2022-10-04T02:57:33;10.00;99.90
37050;DHT22;22958;51.232;6.826;2022-10-04T03:00:12;10.00;99.90
37050;DHT22;22958;51.232;6.826;2022-10-04T03:02:38;10.00;99.90
37050;DHT22;22958;51.232;6.826;2022-10-04T03:05:05;10.10;99.90
37050;DHT22;22958;51.232;6.826;2022-10-04T03:07:33;10.00;99.90
37050;DHT22;22958;51.232;6.826;2022-10-04T03:09:59;10.00;99.90
37050;DHT22;22958;51.232;6.826;2022-10-04T03:12:25;9.90;99.90
37050;DHT22;22958;51.232;6.826;2022-10-04T03:14:53;10.00;99.90
37050;DHT22;22958;51.232;6.826;2022-10-04T03:17:19;10.00;99.90
37050;DHT22;22958;51.232;6.826;2022-10-04T03:19:46;10.10;99.90
37050;DHT22;22958;51.232;6.826;2022-10-04T03:22:12;10.10;99.90
37050;DHT22;22958;51.232;6.826;2022-10-04T03:24:45;10.10;99.90
37050;DHT22;22958;51.232;6.826;2022-10-04T03:27:30;10.00;99.90
37050;DHT22;22958;51.232;6.826;2022-10-04T03:29:58;10.00;99.90
37050;DHT22;22958;51.232;6.826;2022-10-04T03:32:23;10.00;99.90
37050;DHT22;22958;51.232;6.826;2022-10-04T03:34:51;9.90;99.90
37050;DHT22;22958;51.232;6.826;2022-10-04T03:37:17;9.80;99.90
37050;DHT22;22958;51.232;6.826;2022-10-04T03:39:46;9.90;99.90
37050;DHT22;22958;51.232;6.826;2022-10-04T03:42:16;9.80;99.90
37050;DHT22;22958;51.232;6.826;2022-10-04T03:44:43;9.80;99.90
37050;DHT22;22958;51.232;6.826;2022-10-04T03:47:14;9.70;99.90
37050;DHT22;22958;51.232;6.826;2022-10-04T03:49:40;9.70;99.90
37050;DHT22;22958;51.232;6.826;2022-10-04T03:52:06;9.70;99.90
37050;DHT22;22958;51.232;6.826;2022-10-04T03:54:32;9.70;99.90
37050;DHT22;22958;51.232;6.826;2022-10-04T03:56:58;9.70;99.90
37050;DHT22;22958;51.232;6.826;2022-10-04T03:59:25;9.70;99.90
37050;DHT22;22958;51.232;6.826;2022-10-04T04:01:59;9.60;99.90
37050;DHT22;22958;51.232;6.826;2022-10-04T04:04:30;9.60;99.90
37050;DHT22;22958;51.232;6.826;2022-10-04T04:07:00;9.60;99.90
37050;DHT22;22958;51.232;6.826;2022-10-04T04:11:55;9.80;99.90
37050;DHT22;22958;51.232;6.826;2022-10-04T04:14:25;9.70;99.90
37050;DHT22;22958;51.232;6.826;2022-10-04T04:16:52;9.60;99.90
37050;DHT22;22958;51.232;6.826;2022-10-04T04:19:18;9.60;99.90
37050;DHT22;22958;51.232;6.826;2022-10-04T04:21:45;9.60;99.90
37050;DHT22;22958;51.232;6.826;2022-10-04T04:24:25;9.70;99.90
37050;DHT22;22958;51.232;6.826;2022-10-04T04:26:56;9.70;99.90
37050;DHT22;22958;51.232;6.826;2022-10-04T04:31:55;9.70;99.90
37050;DHT22;22958;51.232;6.826;2022-10-04T04:34:29;9.80;99.90
37050;DHT22;22958;51.232;6.826;2022-10-04T04:36:58;9.80;99.90
37050;DHT22;22958;51.232;6.826;2022-10-04T04:39:24;9.70;99.90
37050;DHT22;22958;51.232;6.826;2022-10-04T04:45:02;9.60;99.90
37050;DHT22;22958;51.232;6.826;2022-10-04T04:47:29;9.70;99.90
37050;DHT22;22958;51.232;6.826;2022-10-04T04:49:57;9.60;99.90
37050;DHT22;22958;51.232;6.826;2022-10-04T04:52:26;9.60;99.90
37050;DHT22;22958;51.232;6.826;2022-10-04T04:54:53;9.50;99.90
37050;DHT22;22958;51.232;6.826;2022-10-04T04:57:19;9.50;99.90
37050;DHT22;22958;51.232;6.826;2022-10-04T04:59:46;9.50;99.90
37050;DHT22;22958;51.232;6.826;2022-10-04T05:02:25;9.60;99.90
37050;DHT22;22958;51.232;6.826;2022-10-04T05:05:08;9.60;99.90
37050;DHT22;22958;51.232;6.826;2022-10-04T05:07:34;9.50;99.90
37050;DHT22;22958;51.232;6.826;2022-10-04T05:10:00;9.40;99.90
37050;DHT22;22958;51.232;6.826;2022-10-04T05:12:25;9.40;99.90
37050;DHT22;22958;51.232;6.826;2022-10-04T05:14:52;9.50;99.90
37050;DHT22;22958;51.232;6.826;2022-10-04T05:17:25;9.40;99.90
37050;DHT22;22958;51.232;6.826;2022-10-04T05:19:52;9.40;99.90
37050;DHT22;22958;51.232;6.826;2022-10-04T05:22:21;9.40;99.90
37050;DHT22;22958;51.232;6.826;2022-10-04T05:24:47;9.40;99.90
37050;DHT22;22958;51.232;6.826;2022-10-04T05:27:16;9.40;99.90
37050;DHT22;22958;51.232;6.826;2022-10-04T05:29:56;9.40;99.90
37050;DHT22;22958;51.232;6.826;2022-10-04T05:32:27;9.40;99.90
37050;DHT22;22958;51.232;6.826;2022-10-04T05:34:57;9.40;99.90
37050;DHT22;22958;51.232;6.826;2022-10-04T05:37:33;9.40;99.90
37050;DHT22;22958;51.232;6.826;2022-10-04T05:40:05;9.40;99.90
37050;DHT22;22958;51.232;6.826;2022-10-04T05:42:35;9.30;99.90
37050;DHT22;22958;51.232;6.826;2022-10-04T05:45:11;9.30;99.90
37050;DHT22;22958;51.232;6.826;2022-10-04T05:47:38;9.30;99.90
37050;DHT22;22958;51.232;6.826;2022-10-04T05:50:05;9.40;99.90
37050;DHT22;22958;51.232;6.826;2022-10-04T05:52:32;9.30;99.90
37050;DHT22;22958;51.232;6.826;2022-10-04T06:00:20;9.30;99.90
37050;DHT22;22958;51.232;6.826;2022-10-04T06:02:52;9.30;99.90
37050;DHT22;22958;51.232;6.826;2022-10-04T06:05:27;9.30;99.90
37050;DHT22;22958;51.232;6.826;2022-10-04T06:08:00;9.30;99.90
37050;DHT22;22958;51.232;6.826;2022-10-04T06:10:52;9.30;99.90
37050;DHT22;22958;51.232;6.826;2022-10-04T06:13:18;9.30;99.90
37050;DHT22;22958;51.232;6.826;2022-10-04T06:15:54;9.30;99.90
37050;DHT22;22958;51.232;6.826;2022-10-04T06:23:57;9.30;99.90
37050;DHT22;22958;51.232;6.826;2022-10-04T06:26:32;9.40;99.90
37050;DHT22;22958;51.232;6.826;2022-10-04T06:29:00;9.50;99.90
37050;DHT22;22958;51.232;6.826;2022-10-04T06:31:40;9.50;99.90
37050;DHT22;22958;51.232;6.826;2022-10-04T06:52:47;10.10;99.90
37050;DHT22;22958;51.232;6.826;2022-10-04T07:00:51;10.20;99.90
37050;DHT22;22958;51.232;6.826;2022-10-04T07:03:21;10.20;99.90
37050;DHT22;22958;51.232;6.826;2022-10-04T07:05:53;10.30;99.90
37050;DHT22;22958;51.232;6.826;2022-10-04T07:08:27;10.50;99.90
37050;DHT22;22958;51.232;6.826;2022-10-04T07:11:17;10.50;99.90
37050;DHT22;22958;51.232;6.826;2022-10-04T07:13:50;10.60;99.90
37050;DHT22;22958;51.232;6.826;2022-10-04T07:16:36;10.80;99.90
37050;DHT22;22958;51.232;6.826;2022-10-04T07:22:08;11.20;99.90
37050;DHT22;22958;51.232;6.826;2022-10-04T07:27:02;11.50;99.90
37050;DHT22;22958;51.232;6.826;2022-10-04T07:29:34;11.50;99.90
37050;DHT22;22958;51.232;6.826;2022-10-04T07:37:07;11.40;99.90
37050;DHT22;22958;51.232;6.826;2022-10-04T07:39:56;11.40;99.90
37050;DHT22;22958;51.232;6.826;2022-10-04T07:42:31;11.40;99.90
37050;DHT22;22958;51.232;6.826;2022-10-04T07:45:05;11.30;99.90
37050;DHT22;22958;51.232;6.826;2022-10-04T07:47:35;11.40;99.90
37050;DHT22;22958;51.232;6.826;2022-10-04T07:50:11;11.40;99.90
37050;DHT22;22958;51.232;6.826;2022-10-04T07:52:43;11.40;99.90
37050;DHT22;22958;51.232;6.826;2022-10-04T07:55:16;11.40;99.90
37050;DHT22;22958;51.232;6.826;2022-10-04T08:00:20;11.40;99.90
37050;DHT22;22958;51.232;6.826;2022-10-04T08:12:49;11.60;99.90
37050;DHT22;22958;51.232;6.826;2022-10-04T08:22:57;11.60;99.90
37050;DHT22;22958;51.232;6.826;2022-10-04T08:25:33;11.60;99.90
37050;DHT22;22958;51.232;6.826;2022-10-04T08:38:33;11.80;99.90
37050;DHT22;22958;51.232;6.826;2022-10-04T08:52:02;12.80;99.90
37050;DHT22;22958;51.232;6.826;2022-10-04T08:54:40;12.80;99.90
37050;DHT22;22958;51.232;6.826;2022-10-04T09:00:02;13.00;99.90
37050;DHT22;22958;51.232;6.826;2022-10-04T09:02:45;13.10;99.90
37050;DHT22;22958;51.232;6.826;2022-10-04T09:05:18;13.10;99.90
37050;DHT22;22958;51.232;6.826;2022-10-04T09:13:12;13.50;99.90
37050;DHT22;22958;51.232;6.826;2022-10-04T09:31:13;14.10;99.90
37050;DHT22;22958;51.232;6.826;2022-10-04T09:33:51;13.90;99.90
37050;DHT22;22958;51.232;6.826;2022-10-04T09:36:26;13.90;99.90
37050;DHT22;22958;51.232;6.826;2022-10-04T09:44:22;14.20;99.90
37050;DHT22;22958;51.232;6.826;2022-10-04T09:49:47;14.50;99.90
37050;DHT22;22958;51.232;6.826;2022-10-04T09:55:00;15.00;99.90
37050;DHT22;22958;51.232;6.826;2022-10-04T09:57:51;15.20;99.90
37050;DHT22;22958;51.232;6.826;2022-10-04T10:00:23;15.30;99.90
37050;DHT22;22958;51.232;6.826;2022-10-04T10:07:53;15.10;99.90
37050;DHT22;22958;51.232;6.826;2022-10-04T10:13:27;15.10;99.90
37050;DHT22;22958;51.232;6.826;2022-10-04T10:19:03;15.40;99.90
37050;DHT22;22958;51.232;6.826;2022-10-04T10:21:33;15.40;99.90
37050;DHT22;22958;51.232;6.826;2022-10-04T10:34:39;16.00;99.90
37050;DHT22;22958;51.232;6.826;2022-10-04T10:37:09;16.40;99.90
37050;DHT22;22958;51.232;6.826;2022-10-04T10:42:17;17.10;99.90
37050;DHT22;22958;51.232;6.826;2022-10-04T10:47:16;18.70;99.90
37050;DHT22;22958;51.232;6.826;2022-10-04T10:55:23;21.00;99.90
37050;DHT22;22958;51.232;6.826;2022-10-04T11:03:18;21.90;99.90
37050;DHT22;22958;51.232;6.826;2022-10-04T11:05:55;23.00;99.90
37050;DHT22;22958;51.232;6.826;2022-10-04T11:11:20;23.70;99.90
37050;DHT22;22958;51.232;6.826;2022-10-04T11:14:08;23.50;99.90
37050;DHT22;22958;51.232;6.826;2022-10-04T11:28:01;23.80;99.90
37050;DHT22;22958;51.232;6.826;2022-10-04T11:32:39;25.20;97.60
37050;DHT22;22958;51.232;6.826;2022-10-04T11:37:51;25.10;98.10
37050;DHT22;22958;51.232;6.826;2022-10-04T11:45:53;24.20;97.80
37050;DHT22;22958;51.232;6.826;2022-10-04T11:51:13;23.60;98.80
37050;DHT22;22958;51.232;6.826;2022-10-04T11:53:53;23.70;98.90
37050;DHT22;22958;51.232;6.826;2022-10-04T12:04:13;24.90;96.80
37050;DHT22;22958;51.232;6.826;2022-10-04T12:06:54;24.40;97.40
37050;DHT22;22958;51.232;6.826;2022-10-04T12:09:30;24.30;97.20
37050;DHT22;22958;51.232;6.826;2022-10-04T12:25:31;27.30;93.20
37050;DHT22;22958;51.232;6.826;2022-10-04T12:28:16;27.00;93.10
37050;DHT22;22958;51.232;6.826;2022-10-04T12:33:16;25.90;93.90
37050;DHT22;22958;51.232;6.826;2022-10-04T12:36:21;25.90;93.70
37050;DHT22;22958;51.232;6.826;2022-10-04T12:41:25;25.90;93.80
37050;DHT22;22958;51.232;6.826;2022-10-04T12:44:05;25.70;93.60
37050;DHT22;22958;51.232;6.826;2022-10-04T12:51:52;25.80;93.90
37050;DHT22;22958;51.232;6.826;2022-10-04T12:54:30;25.80;94.00
37050;DHT22;22958;51.232;6.826;2022-10-04T12:59:37;27.90;92.50
37050;DHT22;22958;51.232;6.826;2022-10-04T13:04:53;27.30;91.80
37050;DHT22;22958;51.232;6.826;2022-10-04T13:07:41;28.20;91.20
37050;DHT22;22958;51.232;6.826;2022-10-04T13:15:28;27.50;90.20
37050;DHT22;22958;51.232;6.826;2022-10-04T13:18:08;25.90;92.60
37050;DHT22;22958;51.232;6.826;2022-10-04T13:28:42;27.80;88.80
37050;DHT22;22958;51.232;6.826;2022-10-04T13:34:04;26.90;88.50
37050;DHT22;22958;51.232;6.826;2022-10-04T13:39:28;27.40;88.80
37050;DHT22;22958;51.232;6.826;2022-10-04T13:42:18;27.20;89.00
37050;DHT22;22958;51.232;6.826;2022-10-04T13:44:51;27.40;89.50
37050;DHT22;22958;51.232;6.826;2022-10-04T13:47:27;28.60;87.80
37050;DHT22;22958;51.232;6.826;2022-10-04T13:55:25;27.90;86.70
37050;DHT22;22958;51.232;6.826;2022-10-04T14:00:51;26.80;90.00
37050;DHT22;22958;51.232;6.826;2022-10-04T14:03:22;27.60;89.20
37050;DHT22;22958;51.232;6.826;2022-10-04T14:06:00;26.20;90.10
37050;DHT22;22958;51.232;6.826;2022-10-04T14:11:13;24.20;93.00
37050;DHT22;22958;51.232;6.826;2022-10-04T14:14:05;25.70;92.00
37050;DHT22;22958;51.232;6.826;2022-10-04T14:16:50;27.40;90.50
37050;DHT22;22958;51.232;6.826;2022-10-04T14:21:53;28.40;87.90
37050;DHT22;22958;51.232;6.826;2022-10-04T14:27:12;28.20;87.40
37050;DHT22;22958;51.232;6.826;2022-10-04T14:35:11;28.60;86.40
37050;DHT22;22958;51.232;6.826;2022-10-04T14:37:45;29.30;86.20
37050;DHT22;22958;51.232;6.826;2022-10-04T14:43:11;30.60;82.70
37050;DHT22;22958;51.232;6.826;2022-10-04T14:46:05;29.90;82.30
37050;DHT22;22958;51.232;6.826;2022-10-04T14:48:50;28.80;84.70
37050;DHT22;22958;51.232;6.826;2022-10-04T14:51:19;30.90;81.20
37050;DHT22;22958;51.232;6.826;2022-10-04T14:56:25;28.40;83.80
37050;DHT22;22958;51.232;6.826;2022-10-04T15:01:24;26.70;87.40
37050;DHT22;22958;51.232;6.826;2022-10-04T15:04:15;26.70;88.20
37050;DHT22;22958;51.232;6.826;2022-10-04T15:11:46;25.20;90.30
37050;DHT22;22958;51.232;6.826;2022-10-04T15:14:26;24.50;91.60
37050;DHT22;22958;51.232;6.826;2022-10-04T15:16:56;24.60;91.50
37050;DHT22;22958;51.232;6.826;2022-10-04T15:19:28;24.50;91.80
37050;DHT22;22958;51.232;6.826;2022-10-04T15:22:12;23.80;92.70
37050;DHT22;22958;51.232;6.826;2022-10-04T15:24:45;23.60;93.00
37050;DHT22;22958;51.232;6.826;2022-10-04T15:30:28;23.30;93.90
37050;DHT22;22958;51.232;6.826;2022-10-04T15:37:38;22.20;95.80
37050;DHT22;22958;51.232;6.826;2022-10-04T15:45:34;21.90;97.10
37050;DHT22;22958;51.232;6.826;2022-10-04T15:50:38;21.40;97.70
37050;DHT22;22958;51.232;6.826;2022-10-04T15:53:11;21.20;98.00
37050;DHT22;22958;51.232;6.826;2022-10-04T15:58:15;21.00;99.00
37050;DHT22;22958;51.232;6.826;2022-10-04T16:00:54;20.90;99.50
37050;DHT22;22958;51.232;6.826;2022-10-04T16:06:00;20.80;99.90
37050;DHT22;22958;51.232;6.826;2022-10-04T16:13:45;20.50;99.90
37050;DHT22;22958;51.232;6.826;2022-10-04T16:16:28;20.40;99.90
37050;DHT22;22958;51.232;6.826;2022-10-04T16:31:42;19.70;99.90
37050;DHT22;22958;51.232;6.826;2022-10-04T16:34:20;19.60;99.90
37050;DHT22;22958;51.232;6.826;2022-10-04T16:36:59;19.50;99.90
37050;DHT22;22958;51.232;6.826;2022-10-04T16:39:30;19.40;99.90
37050;DHT22;22958;51.232;6.826;2022-10-04T16:42:15;19.20;99.90
37050;DHT22;22958;51.232;6.826;2022-10-04T16:44:49;19.10;99.90
37050;DHT22;22958;51.232;6.826;2022-10-04T16:47:21;19.10;99.90
37050;DHT22;22958;51.232;6.826;2022-10-04T16:49:49;18.90;99.90
37050;DHT22;22958;51.232;6.826;2022-10-04T17:00:33;18.30;99.90
37050;DHT22;22958;51.232;6.826;2022-10-04T17:08:17;17.70;99.90
37050;DHT22;22958;51.232;6.826;2022-10-04T17:20:55;16.90;99.90
37050;DHT22;22958;51.232;6.826;2022-10-04T17:26:15;16.60;99.90
37050;DHT22;22958;51.232;6.826;2022-10-04T17:31:26;16.40;99.90
37050;DHT22;22958;51.232;6.826;2022-10-04T17:36:37;16.10;99.90
37050;DHT22;22958;51.232;6.826;2022-10-04T17:41:55;16.00;99.90
37050;DHT22;22958;51.232;6.826;2022-10-04T17:49:54;15.70;99.90
37050;DHT22;22958;51.232;6.826;2022-10-04T17:52:40;15.70;99.90
37050;DHT22;22958;51.232;6.826;2022-10-04T17:55:35;15.60;99.90
37050;DHT22;22958;51.232;6.826;2022-10-04T18:00:47;15.30;99.90
37050;DHT22;22958;51.232;6.826;2022-10-04T18:06:03;15.20;99.90
37050;DHT22;22958;51.232;6.826;2022-10-04T18:08:39;15.10;99.90
37050;DHT22;22958;51.232;6.826;2022-10-04T18:11:25;15.00;99.90
37050;DHT22;22958;51.232;6.826;2022-10-04T18:13:54;15.00;99.90
37050;DHT22;22958;51.232;6.826;2022-10-04T18:16:25;14.90;99.90
37050;DHT22;22958;51.232;6.826;2022-10-04T18:18:52;14.80;99.90
37050;DHT22;22958;51.232;6.826;2022-10-04T18:21:19;14.80;99.90
37050;DHT22;22958;51.232;6.826;2022-10-04T18:23:56;14.70;99.90
37050;DHT22;22958;51.232;6.826;2022-10-04T18:26:22;14.60;99.90
37050;DHT22;22958;51.232;6.826;2022-10-04T18:28:50;14.60;99.90
37050;DHT22;22958;51.232;6.826;2022-10-04T18:31:31;14.50;99.90
37050;DHT22;22958;51.232;6.826;2022-10-04T18:39:27;14.30;99.90
37050;DHT22;22958;51.232;6.826;2022-10-04T18:41:57;14.20;99.90
37050;DHT22;22958;51.232;6.826;2022-10-04T18:44:25;14.20;99.90
37050;DHT22;22958;51.232;6.826;2022-10-04T18:47:11;14.10;99.90
37050;DHT22;22958;51.232;6.826;2022-10-04T18:49:48;14.10;99.90
37050;DHT22;22958;51.232;6.826;2022-10-04T18:55:06;14.00;99.90
37050;DHT22;22958;51.232;6.826;2022-10-04T18:57:37;13.90;99.90
37050;DHT22;22958;51.232;6.826;2022-10-04T19:00:24;13.90;99.90
37050;DHT22;22958;51.232;6.826;2022-10-04T19:05:38;14.00;99.90
37050;DHT22;22958;51.232;6.826;2022-10-04T19:08:10;14.00;99.90
37050;DHT22;22958;51.232;6.826;2022-10-04T19:10:54;13.90;99.90
37050;DHT22;22958;51.232;6.826;2022-10-04T19:15:53;13.90;99.90
37050;DHT22;22958;51.232;6.826;2022-10-04T19:23:40;13.70;99.90
37050;DHT22;22958;51.232;6.826;2022-10-04T19:26:11;13.60;99.90
37050;DHT22;22958;51.232;6.826;2022-10-04T19:28:44;13.50;99.90
37050;DHT22;22958;51.232;6.826;2022-10-04T19:31:17;13.50;99.90
37050;DHT22;22958;51.232;6.826;2022-10-04T19:33:59;13.40;99.90
37050;DHT22;22958;51.232;6.826;2022-10-04T19:36:37;13.40;99.90
37050;DHT22;22958;51.232;6.826;2022-10-04T19:39:31;13.40;99.90
37050;DHT22;22958;51.232;6.826;2022-10-04T19:41:59;13.40;99.90
37050;DHT22;22958;51.232;6.826;2022-10-04T19:46:58;13.40;99.90
37050;DHT22;22958;51.232;6.826;2022-10-04T19:49:41;13.40;99.90
37050;DHT22;22958;51.232;6.826;2022-10-04T19:52:16;13.30;99.90
37050;DHT22;22958;51.232;6.826;2022-10-04T19:54:42;13.30;99.90
37050;DHT22;22958;51.232;6.826;2022-10-04T19:57:11;13.20;99.90
37050;DHT22;22958;51.232;6.826;2022-10-04T19:59:41;13.20;99.90
37050;DHT22;22958;51.232;6.826;2022-10-04T20:02:09;13.20;99.90
37050;DHT22;22958;51.232;6.826;2022-10-04T20:04:35;13.20;99.90
37050;DHT22;22958;51.232;6.826;2022-10-04T20:07:22;13.10;99.90
37050;DHT22;22958;51.232;6.826;2022-10-04T20:09:53;13.10;99.90
37050;DHT22;22958;51.232;6.826;2022-10-04T20:12:29;13.10;99.90
37050;DHT22;22958;51.232;6.826;2022-10-04T20:17:41;13.00;99.90
37050;DHT22;22958;51.232;6.826;2022-10-04T20:20:06;12.90;99.90
37050;DHT22;22958;51.232;6.826;2022-10-04T20:28:03;12.90;99.90
37050;DHT22;22958;51.232;6.826;2022-10-04T20:30:49;12.90;99.90
37050;DHT22;22958;51.232;6.826;2022-10-04T20:38:39;12.80;99.90
37050;DHT22;22958;51.232;6.826;2022-10-04T20:41:39;12.80;99.90
37050;DHT22;22958;51.232;6.826;2022-10-04T20:43:55;12.70;99.90
37050;DHT22;22958;51.232;6.826;2022-10-04T20:46:21;12.60;99.90
37050;DHT22;22958;51.232;6.826;2022-10-04T20:48:47;12.70;99.90
37050;DHT22;22958;51.232;6.826;2022-10-04T20:51:13;12.70;99.90
37050;DHT22;22958;51.232;6.826;2022-10-04T20:53:41;12.60;99.90
37050;DHT22;22958;51.232;6.826;2022-10-04T20:56:21;12.60;99.90
37050;DHT22;22958;51.232;6.826;2022-10-04T20:58:51;12.50;99.90
37050;DHT22;22958;51.232;6.826;2022-10-04T21:01:24;12.50;99.90
37050;DHT22;22958;51.232;6.826;2022-10-04T21:06:53;12.40;99.90
37050;DHT22;22958;51.232;6.826;2022-10-04T21:09:19;12.30;99.90
37050;DHT22;22958;51.232;6.826;2022-10-04T21:11:45;12.20;99.90
37050;DHT22;22958;51.232;6.826;2022-10-04T21:14:26;12.20;99.90
37050;DHT22;22958;51.232;6.826;2022-10-04T21:16:52;12.20;99.90
37050;DHT22;22958;51.232;6.826;2022-10-04T21:22:08;12.10;99.90
37050;DHT22;22958;51.232;6.826;2022-10-04T21:27:11;12.10;99.90
37050;DHT22;22958;51.232;6.826;2022-10-04T21:29:48;12.00;99.90
37050;DHT22;22958;51.232;6.826;2022-10-04T21:32:14;12.00;99.90
37050;DHT22;22958;51.232;6.826;2022-10-04T21:34:39;12.00;99.90
37050;DHT22;22958;51.232;6.826;2022-10-04T21:37:05;12.00;99.90
37050;DHT22;22958;51.232;6.826;2022-10-04T21:39:30;12.00;99.90
37050;DHT22;22958;51.232;6.826;2022-10-04T21:41:55;11.90;99.90
37050;DHT22;22958;51.232;6.826;2022-10-04T21:44:21;11.80;99.90
37050;DHT22;22958;51.232;6.826;2022-10-04T21:46:46;11.80;99.90
37050;DHT22;22958;51.232;6.826;2022-10-04T21:49:12;11.80;99.90
37050;DHT22;22958;51.232;6.826;2022-10-04T21:51:37;11.80;99.90
37050;DHT22;22958;51.232;6.826;2022-10-04T21:54:04;11.80;99.90
37050;DHT22;22958;51.232;6.826;2022-10-04T21:56:30;11.70;99.90
37050;DHT22;22958;51.232;6.826;2022-10-04T21:58:56;11.80;99.90
37050;DHT22;22958;51.232;6.826;2022-10-04T22:01:21;11.80;99.90
37050;DHT22;22958;51.232;6.826;2022-10-04T22:03:47;11.80;99.90
37050;DHT22;22958;51.232;6.826;2022-10-04T22:06:12;11.80;99.90
37050;DHT22;22958;51.232;6.826;2022-10-04T22:08:38;11.80;99.90
37050;DHT22;22958;51.232;6.826;2022-10-04T22:11:03;11.80;99.90
37050;DHT22;22958;51.232;6.826;2022-10-04T22:13:29;11.70;99.90
37050;DHT22;22958;51.232;6.826;2022-10-04T22:15:54;11.70;99.90
37050;DHT22;22958;51.232;6.826;2022-10-04T22:18:19;11.70;99.90
37050;DHT22;22958;51.232;6.826;2022-10-04T22:20:45;11.60;99.90
37050;DHT22;22958;51.232;6.826;2022-10-04T22:23:30;11.50;99.90
37050;DHT22;22958;51.232;6.826;2022-10-04T22:26:04;11.50;99.90
37050;DHT22;22958;51.232;6.826;2022-10-04T22:28:33;11.50;99.90
37050;DHT22;22958;51.232;6.826;2022-10-04T22:31:00;11.60;99.90
37050;DHT22;22958;51.232;6.826;2022-10-04T22:33:27;11.60;99.90
37050;DHT22;22958;51.232;6.826;2022-10-04T22:35:56;11.70;99.90
37050;DHT22;22958;51.232;6.826;2022-10-04T22:38:23;11.70;99.90
37050;DHT22;22958;51.232;6.826;2022-10-04T22:40:48;11.70;99.90
37050;DHT22;22958;51.232;6.826;2022-10-04T22:43:14;11.70;99.90
37050;DHT22;22958;51.232;6.826;2022-10-04T22:45:39;11.70;99.90
37050;DHT22;22958;51.232;6.826;2022-10-04T22:48:10;11.70;99.90
37050;DHT22;22958;51.232;6.826;2022-10-04T22:50:38;11.60;99.90
37050;DHT22;22958;51.232;6.826;2022-10-04T22:53:06;11.70;99.90
37050;DHT22;22958;51.232;6.826;2022-10-04T22:55:35;11.70;99.90
37050;DHT22;22958;51.232;6.826;2022-10-04T22:58:00;11.70;99.90
37050;DHT22;22958;51.232;6.826;2022-10-04T23:00:26;11.70;99.90
37050;DHT22;22958;51.232;6.826;2022-10-04T23:02:51;11.70;99.90
37050;DHT22;22958;51.232;6.826;2022-10-04T23:05:17;11.70;99.90
37050;DHT22;22958;51.232;6.826;2022-10-04T23:07:44;11.60;99.90
37050;DHT22;22958;51.232;6.826;2022-10-04T23:10:10;11.60;99.90
37050;DHT22;22958;51.232;6.826;2022-10-04T23:12:35;11.60;99.90
37050;DHT22;22958;51.232;6.826;2022-10-04T23:15:01;11.60;99.90
37050;DHT22;22958;51.232;6.826;2022-10-04T23:17:28;11.50;99.90